aviador You're here:

KMGW Decoded Metar

MORGANTOWN in WV, USA
Report Time2018-01-16 13:20:00
UTC Time2018-01-16 13:30:06
Flight Rules mvfr MVFR
WindVRB at 03 kt
Visibility8047 m
Phenomena:Mist
Clouds:Few 007 Hf
Broken 016 Hf
Overcast 021 Hf
Expected CloudBase > 400 ft AGL from Temp-Dew spread
Ceiling1,600 ft
Temp-2°C (ISA -15)
Dew Point-3°C (93% RH)
AAT-5.5°C
QNH1028 hPa
Density Alt-978 ft
Elevation1,240 ft
Report Wrong Elevation
Raw Report
KMGW 161320Z VRB03KT 5SM BR FEW007 BKN016 OVC021 M02/M03 A3036 RMK
AO2 T10171033=

Extra information for KMGW:More info

Metar Taf Metar & Taf Last 4 Metars F.Rules Stats Wind Profile Meteogram Temp Stats Airport Information Weather charts Add Link Nearby VenuesMetar ALERT Operation Metar Decoded Social comments

AIRNAV info for KMGW